LDDULIRQ

Guest
Details From LDDU - Dubrovnik
To LIRQ - Firenze
Flight Number -
Tags Generated
Created
Modified
Stats Distance 318 nm / 588 km
Max Altitude 0 ft / 0 m
Waypoints 3
Social Downloads 0
Likes 0
Share VATSIM

Download

Looking for another format? Having issues loading an existing format? Contact us
Advertisement - Login to hide

Notes

Generated

Route

LDDU PRT LIRQ

ID Type Via Altitude Latitude Longitude Leg Dist Tot Dist Heading (true) Name
O LDDU APT - 0 ft / 0 m 42.56986˚ 18.24681˚ - 0 nm - -
PRT VOR - 0 ft / 0 m 43.80994˚ 11.20048˚ 317 nm 317 nm 286° / 281° PERETOLA VOR-DME
O LIRQ APT - 0 ft / 0 m 43.80507˚ 11.19741˚ 0 nm 317 nm 204° / 204° -

Altitude Profile

Advertisement - Login to hide

Weather


0- 5 10 15 20 25 30 35+ Temperature / ° C

Clouds and Precipitation
Forecast for 2017-12-13 00:00 UTC. Updated an hour ago

Ground ~20,000 ft ~40,000 ft Winds

LDDU

Details ICAO LDDU (DBV)
Name DUBROVNIK
Region Croatia
Timezone Europe/Zagreb (UTC+1.0)
Stats Elevation 527 ft / 161 m (AMSL)
Location 42.562840° 18.264499°
Runways 1
Magnetic Variation 4.099° E

METAR

LDDU 122000Z 14015KT 9999 SCT008 BKN012 OVC023 15/15 Q1019 NOSIG

Decode

TAF

TAF TAF LDDU 121725Z 1218/1318 12015KT 9999 SCT010 BKN015 TX15/1218Z TN12/1315Z TEMPO 1218/1318 BKN010 PROB40 TEMPO 1218/1302 12015G25KT BKN008 PROB40 TEMPO 1221/1312 12008KT 4000 -RA BECMG 1312/1314 19012KT 4000 RA BKN008 PROB40 TEMPO 1312/1317 3000 TSRA BKN010 FEW015CB BECMG 1316/1318 29009KT BKN020

Decode

Departure Runways

ID Width Length Bearing (true) Bearing (mag) Surface Threshold Offset Overrun Length
12 148 ft / 45 m 10,803 ft / 3,293 m 118.30° 114.20° Asphalt 488 ft / 149 m 100 ft / 30 m
30 148 ft / 45 m 10,803 ft / 3,293 m 298.33° 294.23° Asphalt 0 ft / 0 m 100 ft / 30 m

LIRQ

Details ICAO LIRQ (FLR)
Name Firenze
Region Italy
Timezone Europe/Rome (UTC+1.0)
Stats Elevation 142 ft / 43 m (AMSL)
Location 43.809984° 11.205118°
Runways 1
Magnetic Variation 2.874° E

METAR

LIRQ 121950Z 10005KT 9999 FEW040 BKN080 10/08 Q1015

Decode

TAF

TAF LIRQ 121700Z 1218/1318 VRB06KT 6000 SCT018 BKN040 TEMPO 1218/1224 RA

Decode

Destination Runways

ID Width Length Bearing (true) Bearing (mag) Surface Threshold Offset Overrun Length
05 98 ft / 30 m 5,420 ft / 1,652 m 48.52° 45.65° Asphalt 492 ft / 150 m 0 ft / 0 m
23 98 ft / 30 m 5,420 ft / 1,652 m 228.53° 225.66° Asphalt 2,287 ft / 697 m 0 ft / 0 m

Approach Navaids

Runway Type Ident Frequency Range Bearing (true) Bearing (mag) Slope Elevation
05 Localiser IFZ 110.30 MHz 18 nm / 33 km 48.10° 45.23° - 131 ft / 40 m (AMSL)
05 Glidescope IFZ 110.30 MHz 10 nm / 19 km 47.00° 44.13° 3.00° 144 ft / 44 m (AMSL)
05 DME IFZ 110.30 MHz 18 nm / 33 km - - - 144 ft / 44 m (AMSL)

Popular Alternatives